sensor_id;sensor_type;location;lat;lon;timestamp;temperature;humidity
9414;DHT22;4746;35.664;139.738;2023-12-20T00:00:01;9.50;66.40
9414;DHT22;4746;35.664;139.738;2023-12-20T00:02:29;9.60;66.30
9414;DHT22;4746;35.664;139.738;2023-12-20T00:04:57;9.60;66.40
9414;DHT22;4746;35.664;139.738;2023-12-20T00:07:24;9.70;67.30
9414;DHT22;4746;35.664;139.738;2023-12-20T00:09:51;9.80;67.70
9414;DHT22;4746;35.664;139.738;2023-12-20T00:12:19;9.90;67.90
9414;DHT22;4746;35.664;139.738;2023-12-20T00:14:46;10.10;66.20
9414;DHT22;4746;35.664;139.738;2023-12-20T00:17:14;10.10;65.50
9414;DHT22;4746;35.664;139.738;2023-12-20T00:19:41;10.20;66.60
9414;DHT22;4746;35.664;139.738;2023-12-20T00:22:09;10.30;66.10
9414;DHT22;4746;35.664;139.738;2023-12-20T00:24:37;10.40;65.80
9414;DHT22;4746;35.664;139.738;2023-12-20T00:27:04;10.40;64.80
9414;DHT22;4746;35.664;139.738;2023-12-20T00:29:32;10.40;64.50
9414;DHT22;4746;35.664;139.738;2023-12-20T00:31:59;10.40;67.00
9414;DHT22;4746;35.664;139.738;2023-12-20T00:34:27;10.40;66.80
9414;DHT22;4746;35.664;139.738;2023-12-20T00:36:54;10.30;67.00
9414;DHT22;4746;35.664;139.738;2023-12-20T00:39:23;10.20;67.30
9414;DHT22;4746;35.664;139.738;2023-12-20T00:41:50;10.20;67.20
9414;DHT22;4746;35.664;139.738;2023-12-20T00:44:18;10.30;67.90
9414;DHT22;4746;35.664;139.738;2023-12-20T00:46:45;10.30;68.90
9414;DHT22;4746;35.664;139.738;2023-12-20T00:49:13;10.40;69.80
9414;DHT22;4746;35.664;139.738;2023-12-20T00:51:40;10.40;70.90
9414;DHT22;4746;35.664;139.738;2023-12-20T00:54:10;10.30;70.40
9414;DHT22;4746;35.664;139.738;2023-12-20T00:56:38;10.50;70.70
9414;DHT22;4746;35.664;139.738;2023-12-20T00:59:05;10.60;70.10
9414;DHT22;4746;35.664;139.738;2023-12-20T01:01:33;10.70;69.60
9414;DHT22;4746;35.664;139.738;2023-12-20T01:04:00;10.80;69.80
9414;DHT22;4746;35.664;139.738;2023-12-20T01:06:28;10.90;69.10
9414;DHT22;4746;35.664;139.738;2023-12-20T01:08:55;11.00;69.10
9414;DHT22;4746;35.664;139.738;2023-12-20T01:11:25;11.10;69.30
9414;DHT22;4746;35.664;139.738;2023-12-20T01:13:53;11.10;68.80
9414;DHT22;4746;35.664;139.738;2023-12-20T01:16:20;11.10;69.10
9414;DHT22;4746;35.664;139.738;2023-12-20T01:18:48;11.10;69.70
9414;DHT22;4746;35.664;139.738;2023-12-20T01:21:16;11.10;69.20
9414;DHT22;4746;35.664;139.738;2023-12-20T01:23:45;11.10;69.70
9414;DHT22;4746;35.664;139.738;2023-12-20T01:26:15;11.10;70.70
9414;DHT22;4746;35.664;139.738;2023-12-20T01:28:43;11.10;70.30
9414;DHT22;4746;35.664;139.738;2023-12-20T01:31:10;11.10;70.30
9414;DHT22;4746;35.664;139.738;2023-12-20T01:33:38;11.10;70.80
9414;DHT22;4746;35.664;139.738;2023-12-20T01:36:07;11.20;70.60
9414;DHT22;4746;35.664;139.738;2023-12-20T01:38:36;11.20;70.60
9414;DHT22;4746;35.664;139.738;2023-12-20T01:41:04;11.10;70.30
9414;DHT22;4746;35.664;139.738;2023-12-20T01:43:31;11.10;69.90
9414;DHT22;4746;35.664;139.738;2023-12-20T01:45:59;11.10;70.20
9414;DHT22;4746;35.664;139.738;2023-12-20T01:48:28;11.10;70.00
9414;DHT22;4746;35.664;139.738;2023-12-20T01:50:59;11.10;69.80
9414;DHT22;4746;35.664;139.738;2023-12-20T01:53:29;11.20;69.90
9414;DHT22;4746;35.664;139.738;2023-12-20T01:55:59;11.40;69.90
9414;DHT22;4746;35.664;139.738;2023-12-20T01:58:28;11.40;67.60
9414;DHT22;4746;35.664;139.738;2023-12-20T02:00:56;11.40;68.00
9414;DHT22;4746;35.664;139.738;2023-12-20T02:03:25;11.50;67.40
9414;DHT22;4746;35.664;139.738;2023-12-20T02:05:53;11.60;66.90
9414;DHT22;4746;35.664;139.738;2023-12-20T02:08:21;11.60;66.00
9414;DHT22;4746;35.664;139.738;2023-12-20T02:10:48;11.70;65.00
9414;DHT22;4746;35.664;139.738;2023-12-20T02:13:16;11.70;64.80
9414;DHT22;4746;35.664;139.738;2023-12-20T02:15:44;11.90;65.40
9414;DHT22;4746;35.664;139.738;2023-12-20T02:18:14;12.00;63.20
9414;DHT22;4746;35.664;139.738;2023-12-20T02:20:43;12.20;61.90
9414;DHT22;4746;35.664;139.738;2023-12-20T02:23:12;12.30;61.30
9414;DHT22;4746;35.664;139.738;2023-12-20T02:25:40;12.50;59.90
9414;DHT22;4746;35.664;139.738;2023-12-20T02:28:08;12.60;58.60
9414;DHT22;4746;35.664;139.738;2023-12-20T02:30:35;12.80;57.90
9414;DHT22;4746;35.664;139.738;2023-12-20T02:33:03;12.70;55.20
9414;DHT22;4746;35.664;139.738;2023-12-20T02:35:35;12.60;54.60
9414;DHT22;4746;35.664;139.738;2023-12-20T02:38:05;12.60;53.20
9414;DHT22;4746;35.664;139.738;2023-12-20T02:40:32;12.60;52.90
9414;DHT22;4746;35.664;139.738;2023-12-20T02:43:00;12.70;52.90
9414;DHT22;4746;35.664;139.738;2023-12-20T02:45:28;12.80;52.80
9414;DHT22;4746;35.664;139.738;2023-12-20T02:47:56;12.90;52.60
9414;DHT22;4746;35.664;139.738;2023-12-20T02:50:23;13.20;52.20
9414;DHT22;4746;35.664;139.738;2023-12-20T02:52:51;13.30;50.80
9414;DHT22;4746;35.664;139.738;2023-12-20T02:55:18;13.40;50.10
9414;DHT22;4746;35.664;139.738;2023-12-20T02:57:46;13.60;49.60
9414;DHT22;4746;35.664;139.738;2023-12-20T03:00:14;13.50;47.80
9414;DHT22;4746;35.664;139.738;2023-12-20T03:02:41;13.50;47.40
9414;DHT22;4746;35.664;139.738;2023-12-20T03:05:09;13.50;46.10
9414;DHT22;4746;35.664;139.738;2023-12-20T03:07:38;13.70;46.40
9414;DHT22;4746;35.664;139.738;2023-12-20T03:10:06;13.90;46.10
9414;DHT22;4746;35.664;139.738;2023-12-20T03:12:35;14.10;45.30
9414;DHT22;4746;35.664;139.738;2023-12-20T03:15:03;14.30;45.20
9414;DHT22;4746;35.664;139.738;2023-12-20T03:17:30;14.40;45.00
9414;DHT22;4746;35.664;139.738;2023-12-20T03:19:58;14.40;43.70
9414;DHT22;4746;35.664;139.738;2023-12-20T03:22:25;14.50;43.30
9414;DHT22;4746;35.664;139.738;2023-12-20T03:24:53;14.50;42.50
9414;DHT22;4746;35.664;139.738;2023-12-20T03:27:20;14.70;42.90
9414;DHT22;4746;35.664;139.738;2023-12-20T03:29:48;15.00;43.20
9414;DHT22;4746;35.664;139.738;2023-12-20T03:32:15;15.30;43.90
9414;DHT22;4746;35.664;139.738;2023-12-20T03:34:43;15.60;44.10
9414;DHT22;4746;35.664;139.738;2023-12-20T03:37:10;15.70;44.00
9414;DHT22;4746;35.664;139.738;2023-12-20T03:39:38;15.90;44.80
9414;DHT22;4746;35.664;139.738;2023-12-20T03:42:05;16.00;44.80
9414;DHT22;4746;35.664;139.738;2023-12-20T03:44:33;16.20;44.70
9414;DHT22;4746;35.664;139.738;2023-12-20T03:47:00;16.50;44.90
9414;DHT22;4746;35.664;139.738;2023-12-20T03:49:28;16.70;44.00
9414;DHT22;4746;35.664;139.738;2023-12-20T03:51:55;17.00;44.40
9414;DHT22;4746;35.664;139.738;2023-12-20T03:54:24;17.30;43.60
9414;DHT22;4746;35.664;139.738;2023-12-20T03:56:52;17.60;42.70
9414;DHT22;4746;35.664;139.738;2023-12-20T03:59:21;17.90;41.90
9414;DHT22;4746;35.664;139.738;2023-12-20T04:01:50;18.20;42.00
9414;DHT22;4746;35.664;139.738;2023-12-20T04:04:17;18.50;40.20
9414;DHT22;4746;35.664;139.738;2023-12-20T04:06:45;18.70;37.80
9414;DHT22;4746;35.664;139.738;2023-12-20T04:09:13;18.90;37.80
9414;DHT22;4746;35.664;139.738;2023-12-20T04:11:40;19.10;36.40
9414;DHT22;4746;35.664;139.738;2023-12-20T04:14:08;19.30;36.80
9414;DHT22;4746;35.664;139.738;2023-12-20T04:16:36;19.50;36.00
9414;DHT22;4746;35.664;139.738;2023-12-20T04:19:05;19.40;35.30
9414;DHT22;4746;35.664;139.738;2023-12-20T04:21:50;19.40;35.50
9414;DHT22;4746;35.664;139.738;2023-12-20T04:24:25;19.30;34.90
9414;DHT22;4746;35.664;139.738;2023-12-20T04:26:52;19.20;35.30
9414;DHT22;4746;35.664;139.738;2023-12-20T04:29:20;19.20;35.60
9414;DHT22;4746;35.664;139.738;2023-12-20T04:31:52;19.20;35.60
9414;DHT22;4746;35.664;139.738;2023-12-20T04:34:20;19.30;35.30
9414;DHT22;4746;35.664;139.738;2023-12-20T04:36:49;19.40;35.00
9414;DHT22;4746;35.664;139.738;2023-12-20T04:39:29;19.50;34.60
9414;DHT22;4746;35.664;139.738;2023-12-20T04:41:59;19.50;34.90
9414;DHT22;4746;35.664;139.738;2023-12-20T04:44:28;19.80;35.20
9414;DHT22;4746;35.664;139.738;2023-12-20T04:46:58;20.10;33.90
9414;DHT22;4746;35.664;139.738;2023-12-20T04:49:26;20.30;32.60
9414;DHT22;4746;35.664;139.738;2023-12-20T04:51:54;20.50;31.70
9414;DHT22;4746;35.664;139.738;2023-12-20T04:54:22;20.60;31.60
9414;DHT22;4746;35.664;139.738;2023-12-20T04:56:52;20.70;31.50
9414;DHT22;4746;35.664;139.738;2023-12-20T04:59:20;20.80;31.10
9414;DHT22;4746;35.664;139.738;2023-12-20T05:01:48;20.90;28.90
9414;DHT22;4746;35.664;139.738;2023-12-20T05:04:15;21.00;28.20
9414;DHT22;4746;35.664;139.738;2023-12-20T05:06:47;20.90;28.60
9414;DHT22;4746;35.664;139.738;2023-12-20T05:09:18;20.70;28.40
9414;DHT22;4746;35.664;139.738;2023-12-20T05:11:46;20.50;28.70
9414;DHT22;4746;35.664;139.738;2023-12-20T05:14:16;20.40;28.40
9414;DHT22;4746;35.664;139.738;2023-12-20T05:16:43;20.30;28.20
9414;DHT22;4746;35.664;139.738;2023-12-20T05:19:11;20.30;28.10
9414;DHT22;4746;35.664;139.738;2023-12-20T05:21:38;20.20;27.30
9414;DHT22;4746;35.664;139.738;2023-12-20T05:24:06;20.10;26.90
9414;DHT22;4746;35.664;139.738;2023-12-20T05:26:34;20.00;27.00
9414;DHT22;4746;35.664;139.738;2023-12-20T05:29:01;19.90;27.50
9414;DHT22;4746;35.664;139.738;2023-12-20T05:31:28;19.70;27.50
9414;DHT22;4746;35.664;139.738;2023-12-20T05:33:58;19.70;27.20
9414;DHT22;4746;35.664;139.738;2023-12-20T05:36:26;19.80;27.10
9414;DHT22;4746;35.664;139.738;2023-12-20T05:38:54;20.20;26.40
9414;DHT22;4746;35.664;139.738;2023-12-20T05:41:22;20.50;26.90
9414;DHT22;4746;35.664;139.738;2023-12-20T05:43:49;21.00;27.60
9414;DHT22;4746;35.664;139.738;2023-12-20T05:46:19;21.50;27.10
9414;DHT22;4746;35.664;139.738;2023-12-20T05:48:48;21.90;27.80
9414;DHT22;4746;35.664;139.738;2023-12-20T05:51:15;22.30;28.00
9414;DHT22;4746;35.664;139.738;2023-12-20T05:53:43;22.60;28.40
9414;DHT22;4746;35.664;139.738;2023-12-20T05:56:11;23.00;28.00
9414;DHT22;4746;35.664;139.738;2023-12-20T05:58:41;23.50;27.40
9414;DHT22;4746;35.664;139.738;2023-12-20T06:01:09;23.70;26.90
9414;DHT22;4746;35.664;139.738;2023-12-20T06:03:40;23.70;26.50
9414;DHT22;4746;35.664;139.738;2023-12-20T06:06:08;23.60;26.20
9414;DHT22;4746;35.664;139.738;2023-12-20T06:08:36;23.50;25.80
9414;DHT22;4746;35.664;139.738;2023-12-20T06:11:04;23.30;25.40
9414;DHT22;4746;35.664;139.738;2023-12-20T06:13:32;23.00;25.40
9414;DHT22;4746;35.664;139.738;2023-12-20T06:15:59;22.50;25.50
9414;DHT22;4746;35.664;139.738;2023-12-20T06:18:27;22.00;26.20
9414;DHT22;4746;35.664;139.738;2023-12-20T06:20:56;21.50;25.90
9414;DHT22;4746;35.664;139.738;2023-12-20T06:23:24;21.00;26.10
9414;DHT22;4746;35.664;139.738;2023-12-20T06:25:51;20.50;26.10
9414;DHT22;4746;35.664;139.738;2023-12-20T06:28:23;20.00;26.00
9414;DHT22;4746;35.664;139.738;2023-12-20T06:30:51;19.60;26.10
9414;DHT22;4746;35.664;139.738;2023-12-20T06:33:20;19.20;26.30
9414;DHT22;4746;35.664;139.738;2023-12-20T06:35:49;18.80;26.70
9414;DHT22;4746;35.664;139.738;2023-12-20T06:38:18;18.40;27.20
9414;DHT22;4746;35.664;139.738;2023-12-20T06:40:47;18.10;27.70
9414;DHT22;4746;35.664;139.738;2023-12-20T06:43:15;17.80;27.90
9414;DHT22;4746;35.664;139.738;2023-12-20T06:45:42;17.60;28.30
9414;DHT22;4746;35.664;139.738;2023-12-20T06:48:13;17.30;28.60
9414;DHT22;4746;35.664;139.738;2023-12-20T06:50:41;17.10;29.00
9414;DHT22;4746;35.664;139.738;2023-12-20T06:53:08;16.80;29.30
9414;DHT22;4746;35.664;139.738;2023-12-20T06:55:36;16.60;30.00
9414;DHT22;4746;35.664;139.738;2023-12-20T06:58:04;16.40;30.70
9414;DHT22;4746;35.664;139.738;2023-12-20T07:00:32;16.20;31.20
9414;DHT22;4746;35.664;139.738;2023-12-20T07:03:00;16.00;32.20
9414;DHT22;4746;35.664;139.738;2023-12-20T07:05:28;15.70;32.70
9414;DHT22;4746;35.664;139.738;2023-12-20T07:07:55;15.60;33.00
9414;DHT22;4746;35.664;139.738;2023-12-20T07:10:23;15.40;33.60
9414;DHT22;4746;35.664;139.738;2023-12-20T07:12:50;15.30;33.60
9414;DHT22;4746;35.664;139.738;2023-12-20T07:15:22;15.10;33.60
9414;DHT22;4746;35.664;139.738;2023-12-20T07:17:50;15.00;33.70
9414;DHT22;4746;35.664;139.738;2023-12-20T07:20:19;14.80;33.70
9414;DHT22;4746;35.664;139.738;2023-12-20T07:22:53;14.70;33.90
9414;DHT22;4746;35.664;139.738;2023-12-20T07:25:59;14.60;34.40
9414;DHT22;4746;35.664;139.738;2023-12-20T07:28:31;14.50;34.60
9414;DHT22;4746;35.664;139.738;2023-12-20T07:30:59;14.30;33.50
9414;DHT22;4746;35.664;139.738;2023-12-20T07:33:27;14.20;33.30
9414;DHT22;4746;35.664;139.738;2023-12-20T07:35:54;14.10;34.60
9414;DHT22;4746;35.664;139.738;2023-12-20T07:38:22;13.90;34.70
9414;DHT22;4746;35.664;139.738;2023-12-20T07:40:51;13.90;35.50
9414;DHT22;4746;35.664;139.738;2023-12-20T07:43:30;13.70;36.10
9414;DHT22;4746;35.664;139.738;2023-12-20T07:46:11;13.50;36.40
9414;DHT22;4746;35.664;139.738;2023-12-20T07:48:41;13.40;36.50
9414;DHT22;4746;35.664;139.738;2023-12-20T07:51:08;13.30;36.90
9414;DHT22;4746;35.664;139.738;2023-12-20T07:53:40;13.30;36.30
9414;DHT22;4746;35.664;139.738;2023-12-20T07:56:18;13.20;36.90
9414;DHT22;4746;35.664;139.738;2023-12-20T07:58:47;13.20;36.90
9414;DHT22;4746;35.664;139.738;2023-12-20T08:01:16;13.10;37.10
9414;DHT22;4746;35.664;139.738;2023-12-20T08:03:44;13.10;37.60
9414;DHT22;4746;35.664;139.738;2023-12-20T08:06:12;13.10;38.00
9414;DHT22;4746;35.664;139.738;2023-12-20T08:08:40;13.10;38.20
9414;DHT22;4746;35.664;139.738;2023-12-20T08:11:07;13.00;37.70
9414;DHT22;4746;35.664;139.738;2023-12-20T08:13:35;13.00;37.10
9414;DHT22;4746;35.664;139.738;2023-12-20T08:16:02;13.00;36.60
9414;DHT22;4746;35.664;139.738;2023-12-20T08:18:32;12.90;36.00
9414;DHT22;4746;35.664;139.738;2023-12-20T08:21:00;12.90;35.70
9414;DHT22;4746;35.664;139.738;2023-12-20T08:23:28;12.90;35.90
9414;DHT22;4746;35.664;139.738;2023-12-20T08:25:55;12.90;36.50
9414;DHT22;4746;35.664;139.738;2023-12-20T08:28:23;12.90;36.80
9414;DHT22;4746;35.664;139.738;2023-12-20T08:30:50;12.90;36.90
9414;DHT22;4746;35.664;139.738;2023-12-20T08:33:21;12.80;37.60
9414;DHT22;4746;35.664;139.738;2023-12-20T08:35:48;12.80;37.80
9414;DHT22;4746;35.664;139.738;2023-12-20T08:38:18;12.80;38.40
9414;DHT22;4746;35.664;139.738;2023-12-20T08:40:45;12.80;39.10
9414;DHT22;4746;35.664;139.738;2023-12-20T08:43:14;12.80;40.70
9414;DHT22;4746;35.664;139.738;2023-12-20T08:45:42;12.80;43.40
9414;DHT22;4746;35.664;139.738;2023-12-20T08:48:09;12.70;46.70
9414;DHT22;4746;35.664;139.738;2023-12-20T08:50:37;12.70;50.80
9414;DHT22;4746;35.664;139.738;2023-12-20T08:53:05;12.70;56.30
9414;DHT22;4746;35.664;139.738;2023-12-20T08:55:33;12.60;63.80
9414;DHT22;4746;35.664;139.738;2023-12-20T08:58:00;12.60;76.90
9414;DHT22;4746;35.664;139.738;2023-12-20T09:00:28;12.60;86.30
9414;DHT22;4746;35.664;139.738;2023-12-20T09:02:56;12.60;92.00
9414;DHT22;4746;35.664;139.738;2023-12-20T09:05:23;12.60;97.10
9414;DHT22;4746;35.664;139.738;2023-12-20T09:07:51;12.60;99.90
9414;DHT22;4746;35.664;139.738;2023-12-20T09:10:22;12.60;99.90
9414;DHT22;4746;35.664;139.738;2023-12-20T09:12:52;12.60;99.90
9414;DHT22;4746;35.664;139.738;2023-12-20T09:15:27;12.50;99.90
9414;DHT22;4746;35.664;139.738;2023-12-20T09:17:56;12.50;99.90
9414;DHT22;4746;35.664;139.738;2023-12-20T09:20:24;12.50;99.90
9414;DHT22;4746;35.664;139.738;2023-12-20T09:22:53;12.50;99.90
9414;DHT22;4746;35.664;139.738;2023-12-20T09:25:21;12.40;99.90
9414;DHT22;4746;35.664;139.738;2023-12-20T09:27:49;12.40;99.90
9414;DHT22;4746;35.664;139.738;2023-12-20T09:30:19;12.40;99.90
9414;DHT22;4746;35.664;139.738;2023-12-20T09:32:48;12.40;99.90
9414;DHT22;4746;35.664;139.738;2023-12-20T09:35:16;12.40;99.90
9414;DHT22;4746;35.664;139.738;2023-12-20T09:37:43;12.40;99.90
9414;DHT22;4746;35.664;139.738;2023-12-20T09:40:18;12.40;99.90
9414;DHT22;4746;35.664;139.738;2023-12-20T09:43:03;12.40;99.90
9414;DHT22;4746;35.664;139.738;2023-12-20T09:45:34;12.40;99.90
9414;DHT22;4746;35.664;139.738;2023-12-20T09:48:03;12.40;99.90
9414;DHT22;4746;35.664;139.738;2023-12-20T09:50:31;12.40;99.90
9414;DHT22;4746;35.664;139.738;2023-12-20T09:53:01;12.40;99.90
9414;DHT22;4746;35.664;139.738;2023-12-20T09:55:32;12.40;99.90
9414;DHT22;4746;35.664;139.738;2023-12-20T09:58:01;12.40;99.90
9414;DHT22;4746;35.664;139.738;2023-12-20T10:00:29;12.30;99.90
9414;DHT22;4746;35.664;139.738;2023-12-20T10:02:58;12.30;99.90
9414;DHT22;4746;35.664;139.738;2023-12-20T10:05:28;12.40;99.90
9414;DHT22;4746;35.664;139.738;2023-12-20T10:07:58;12.30;99.90
9414;DHT22;4746;35.664;139.738;2023-12-20T10:10:27;12.30;99.90
9414;DHT22;4746;35.664;139.738;2023-12-20T10:13:04;12.30;99.90
9414;DHT22;4746;35.664;139.738;2023-12-20T10:15:37;12.30;99.90
9414;DHT22;4746;35.664;139.738;2023-12-20T10:18:06;12.30;99.90
9414;DHT22;4746;35.664;139.738;2023-12-20T10:20:34;12.30;99.90
9414;DHT22;4746;35.664;139.738;2023-12-20T10:23:02;12.20;99.90
9414;DHT22;4746;35.664;139.738;2023-12-20T10:25:30;12.30;99.90
9414;DHT22;4746;35.664;139.738;2023-12-20T10:28:15;12.20;99.90
9414;DHT22;4746;35.664;139.738;2023-12-20T10:30:49;12.20;99.90
9414;DHT22;4746;35.664;139.738;2023-12-20T10:33:27;12.20;99.90
9414;DHT22;4746;35.664;139.738;2023-12-20T10:35:56;12.20;99.90
9414;DHT22;4746;35.664;139.738;2023-12-20T10:38:23;12.20;99.90
9414;DHT22;4746;35.664;139.738;2023-12-20T10:40:56;12.20;99.90
9414;DHT22;4746;35.664;139.738;2023-12-20T10:43:27;12.20;99.90
9414;DHT22;4746;35.664;139.738;2023-12-20T10:45:57;12.20;99.90
9414;DHT22;4746;35.664;139.738;2023-12-20T10:48:27;12.20;99.90
9414;DHT22;4746;35.664;139.738;2023-12-20T10:50:58;12.20;99.90
9414;DHT22;4746;35.664;139.738;2023-12-20T10:53:26;12.20;99.90
9414;DHT22;4746;35.664;139.738;2023-12-20T10:55:56;12.10;99.90
9414;DHT22;4746;35.664;139.738;2023-12-20T10:58:30;12.10;99.90
9414;DHT22;4746;35.664;139.738;2023-12-20T11:01:02;12.10;99.90
9414;DHT22;4746;35.664;139.738;2023-12-20T11:03:34;12.10;99.90
9414;DHT22;4746;35.664;139.738;2023-12-20T11:06:22;12.10;99.90
9414;DHT22;4746;35.664;139.738;2023-12-20T11:14:46;12.10;99.90
9414;DHT22;4746;35.664;139.738;2023-12-20T11:17:14;12.10;99.90
9414;DHT22;4746;35.664;139.738;2023-12-20T11:22:30;12.10;99.90
9414;DHT22;4746;35.664;139.738;2023-12-20T11:25:09;12.10;99.90
9414;DHT22;4746;35.664;139.738;2023-12-20T11:27:41;12.10;99.90
9414;DHT22;4746;35.664;139.738;2023-12-20T11:30:10;12.10;99.90
9414;DHT22;4746;35.664;139.738;2023-12-20T11:32:38;12.00;99.90
9414;DHT22;4746;35.664;139.738;2023-12-20T11:37:38;12.00;99.90
9414;DHT22;4746;35.664;139.738;2023-12-20T11:40:16;12.10;99.90
9414;DHT22;4746;35.664;139.738;2023-12-20T11:42:48;12.10;99.90
9414;DHT22;4746;35.664;139.738;2023-12-20T11:45:24;12.10;99.90
9414;DHT22;4746;35.664;139.738;2023-12-20T11:47:53;12.10;99.90
9414;DHT22;4746;35.664;139.738;2023-12-20T11:50:22;12.00;99.90
9414;DHT22;4746;35.664;139.738;2023-12-20T11:52:52;12.00;99.90
9414;DHT22;4746;35.664;139.738;2023-12-20T11:55:22;12.00;99.90
9414;DHT22;4746;35.664;139.738;2023-12-20T11:57:53;12.00;99.90
9414;DHT22;4746;35.664;139.738;2023-12-20T12:00:21;12.00;99.90
9414;DHT22;4746;35.664;139.738;2023-12-20T12:02:58;12.00;99.90
9414;DHT22;4746;35.664;139.738;2023-12-20T12:05:28;11.90;99.90
9414;DHT22;4746;35.664;139.738;2023-12-20T12:07:58;11.90;99.90
9414;DHT22;4746;35.664;139.738;2023-12-20T12:10:25;11.90;99.90
9414;DHT22;4746;35.664;139.738;2023-12-20T12:12:53;11.90;99.90
9414;DHT22;4746;35.664;139.738;2023-12-20T12:15:21;11.90;99.90
9414;DHT22;4746;35.664;139.738;2023-12-20T12:17:55;11.90;99.90
9414;DHT22;4746;35.664;139.738;2023-12-20T12:20:26;11.90;99.90
9414;DHT22;4746;35.664;139.738;2023-12-20T12:23:04;11.80;99.90
9414;DHT22;4746;35.664;139.738;2023-12-20T12:25:35;11.80;99.90
9414;DHT22;4746;35.664;139.738;2023-12-20T12:28:03;11.80;99.90
9414;DHT22;4746;35.664;139.738;2023-12-20T12:30:32;11.80;99.90
9414;DHT22;4746;35.664;139.738;2023-12-20T12:32:59;11.70;99.90
9414;DHT22;4746;35.664;139.738;2023-12-20T12:35:27;11.80;99.90
9414;DHT22;4746;35.664;139.738;2023-12-20T12:37:58;11.80;99.90
9414;DHT22;4746;35.664;139.738;2023-12-20T12:40:26;11.80;99.90
9414;DHT22;4746;35.664;139.738;2023-12-20T12:42:55;11.70;99.90
9414;DHT22;4746;35.664;139.738;2023-12-20T12:45:24;11.70;99.90
9414;DHT22;4746;35.664;139.738;2023-12-20T12:47:53;11.70;99.90
9414;DHT22;4746;35.664;139.738;2023-12-20T12:50:21;11.60;99.90
9414;DHT22;4746;35.664;139.738;2023-12-20T12:52:48;11.60;99.90
9414;DHT22;4746;35.664;139.738;2023-12-20T12:55:16;11.60;99.90
9414;DHT22;4746;35.664;139.738;2023-12-20T12:57:44;11.50;99.90
9414;DHT22;4746;35.664;139.738;2023-12-20T13:00:12;11.50;99.90
9414;DHT22;4746;35.664;139.738;2023-12-20T13:02:40;11.40;99.90
9414;DHT22;4746;35.664;139.738;2023-12-20T13:05:08;11.30;99.90
9414;DHT22;4746;35.664;139.738;2023-12-20T13:07:36;11.30;99.90
9414;DHT22;4746;35.664;139.738;2023-12-20T13:10:05;11.20;99.90
9414;DHT22;4746;35.664;139.738;2023-12-20T13:12:33;11.20;99.90
9414;DHT22;4746;35.664;139.738;2023-12-20T13:15:01;11.20;99.90
9414;DHT22;4746;35.664;139.738;2023-12-20T13:17:30;11.10;99.90
9414;DHT22;4746;35.664;139.738;2023-12-20T13:19:58;11.10;99.90
9414;DHT22;4746;35.664;139.738;2023-12-20T13:22:26;11.10;99.90
9414;DHT22;4746;35.664;139.738;2023-12-20T13:24:54;11.10;99.90
9414;DHT22;4746;35.664;139.738;2023-12-20T13:27:21;11.10;99.90
9414;DHT22;4746;35.664;139.738;2023-12-20T13:29:50;11.10;99.90
9414;DHT22;4746;35.664;139.738;2023-12-20T13:32:17;11.10;99.90
9414;DHT22;4746;35.664;139.738;2023-12-20T13:34:46;11.10;99.90
9414;DHT22;4746;35.664;139.738;2023-12-20T13:37:14;11.10;99.90
9414;DHT22;4746;35.664;139.738;2023-12-20T13:39:41;11.10;99.90
9414;DHT22;4746;35.664;139.738;2023-12-20T13:42:09;11.10;99.90
9414;DHT22;4746;35.664;139.738;2023-12-20T13:44:38;11.10;99.90
9414;DHT22;4746;35.664;139.738;2023-12-20T13:47:06;11.10;99.90
9414;DHT22;4746;35.664;139.738;2023-12-20T13:49:34;11.10;99.90
9414;DHT22;4746;35.664;139.738;2023-12-20T13:52:01;11.10;99.90
9414;DHT22;4746;35.664;139.738;2023-12-20T13:54:30;11.10;99.90
9414;DHT22;4746;35.664;139.738;2023-12-20T13:56:58;11.10;99.90
9414;DHT22;4746;35.664;139.738;2023-12-20T13:59:25;11.10;99.90
9414;DHT22;4746;35.664;139.738;2023-12-20T14:01:53;11.10;99.90
9414;DHT22;4746;35.664;139.738;2023-12-20T14:04:20;11.10;99.90
9414;DHT22;4746;35.664;139.738;2023-12-20T14:06:48;11.10;99.90
9414;DHT22;4746;35.664;139.738;2023-12-20T14:09:15;11.00;99.90
9414;DHT22;4746;35.664;139.738;2023-12-20T14:11:43;11.00;99.90
9414;DHT22;4746;35.664;139.738;2023-12-20T14:14:10;10.90;99.90
9414;DHT22;4746;35.664;139.738;2023-12-20T14:16:39;10.80;99.90
9414;DHT22;4746;35.664;139.738;2023-12-20T14:19:09;10.80;99.90
9414;DHT22;4746;35.664;139.738;2023-12-20T14:21:37;10.80;99.90
9414;DHT22;4746;35.664;139.738;2023-12-20T14:24:08;10.70;99.90
9414;DHT22;4746;35.664;139.738;2023-12-20T14:26:36;10.60;99.90
9414;DHT22;4746;35.664;139.738;2023-12-20T14:29:04;10.60;99.90
9414;DHT22;4746;35.664;139.738;2023-12-20T14:31:33;10.60;99.90
9414;DHT22;4746;35.664;139.738;2023-12-20T14:34:01;10.60;99.90
9414;DHT22;4746;35.664;139.738;2023-12-20T14:36:30;10.50;99.90
9414;DHT22;4746;35.664;139.738;2023-12-20T14:38:59;10.50;99.90
9414;DHT22;4746;35.664;139.738;2023-12-20T14:41:31;10.50;99.90
9414;DHT22;4746;35.664;139.738;2023-12-20T14:43:58;10.50;99.90
9414;DHT22;4746;35.664;139.738;2023-12-20T14:46:27;10.40;99.90
9414;DHT22;4746;35.664;139.738;2023-12-20T14:48:55;10.40;99.90
9414;DHT22;4746;35.664;139.738;2023-12-20T14:51:23;10.40;99.90
9414;DHT22;4746;35.664;139.738;2023-12-20T14:53:51;10.40;99.90
9414;DHT22;4746;35.664;139.738;2023-12-20T14:56:18;10.40;99.90
9414;DHT22;4746;35.664;139.738;2023-12-20T14:58:52;10.40;99.90
9414;DHT22;4746;35.664;139.738;2023-12-20T15:01:20;10.30;99.90
9414;DHT22;4746;35.664;139.738;2023-12-20T15:03:50;10.20;99.90
9414;DHT22;4746;35.664;139.738;2023-12-20T15:06:17;10.20;99.90
9414;DHT22;4746;35.664;139.738;2023-12-20T15:08:46;10.10;99.90
9414;DHT22;4746;35.664;139.738;2023-12-20T15:11:14;10.10;99.90
9414;DHT22;4746;35.664;139.738;2023-12-20T15:13:41;10.10;99.90
9414;DHT22;4746;35.664;139.738;2023-12-20T15:16:09;10.10;99.90
9414;DHT22;4746;35.664;139.738;2023-12-20T15:18:36;10.00;99.90
9414;DHT22;4746;35.664;139.738;2023-12-20T15:21:04;9.90;99.90
9414;DHT22;4746;35.664;139.738;2023-12-20T15:23:32;9.90;99.90
9414;DHT22;4746;35.664;139.738;2023-12-20T15:26:00;9.80;99.90
9414;DHT22;4746;35.664;139.738;2023-12-20T15:28:30;9.80;99.90
9414;DHT22;4746;35.664;139.738;2023-12-20T15:30:58;9.80;99.90
9414;DHT22;4746;35.664;139.738;2023-12-20T15:33:26;9.70;99.90
9414;DHT22;4746;35.664;139.738;2023-12-20T15:35:53;9.70;99.90
9414;DHT22;4746;35.664;139.738;2023-12-20T15:38:21;9.70;99.90
9414;DHT22;4746;35.664;139.738;2023-12-20T15:40:48;9.70;99.90
9414;DHT22;4746;35.664;139.738;2023-12-20T15:43:16;9.70;99.90
9414;DHT22;4746;35.664;139.738;2023-12-20T15:45:43;9.70;99.90
9414;DHT22;4746;35.664;139.738;2023-12-20T15:48:12;9.70;99.90
9414;DHT22;4746;35.664;139.738;2023-12-20T15:50:44;9.60;99.90
9414;DHT22;4746;35.664;139.738;2023-12-20T15:53:13;9.60;99.90